Pazifik — ZDKS7 — position and weather

sailwx.info

Track history (hours):
 
Tides and Currents Weather Stations Pressure Air Temp Water Temp Dewpoint Dewpoint Depression Visibility Wind Speed Wind Dir Waves Ship Positions

Pazifik

Last reported at 2017-Mar-24 07:15 UTC. Time now 2017-Mar-25 21:38 UTC.
Position N 38°12' W 010°03'.

Length 205 m; draft 12.3 m.

Type: Ship (hazmat cat A). MMSI: 236111796.

Date/timePositionNaut miles runAvg speedWind from/ knotsBaromVisibWave heightAir tempDewpointWater temp
2017-Mar-24 07:15N 38°12' W 010°03'1013.3
2017-Mar-24 06:32N 38°21' W 010°06'1313.3
2017-Mar-24 05:32N 38°34' W 010°09'1313.7
2017-Mar-24 04:34N 38°47' W 010°11'1413.7
2017-Mar-24 03:33N 39°01' W 010°11'1413.5
2017-Mar-24 02:33N 39°15' W 010°11'  
2017-Mar-21 15:16N 49°47' W 003°25'1313.1
2017-Mar-21 14:15N 49°54' W 003°07'912.9
2017-Mar-21 13:33N 49°58' W 002°55'3912.8
2017-Mar-21 10:31N 50°11' W 001°58'1313.8
2017-Mar-21 09:34N 50°16' W 001°39'5914.7
2017-Mar-21 05:33N 50°29' W 000°09'1513.6
2017-Mar-21 04:30N 50°33' E 000°13'1313.0
2017-Mar-21 03:28N 50°35' E 000°34'1513.0
2017-Mar-21 02:19N 50°43' E 000°53'1113.1
2017-Mar-21 01:27N 50°50' E 001°08'1213.8
2017-Mar-21 00:33N 50°58' E 001°22'1514.7
2017-Mar-20 23:33N 51°09' E 001°38'1414.3
2017-Mar-20 22:33N 51°21' E 001°52'1313.5
2017-Mar-20 21:34N 51°32' E 002°03'5911.7
2017-Mar-20 16:33N 52°18' E 003°02'37613.4
2017-Mar-19 12:33N 58°28' E 005°00'1211.6
2017-Mar-19 11:34N 58°39' E 005°03'1211.8
2017-Mar-19 10:33N 58°51' E 005°05'10 9.8
2017-Mar-19 09:33N 59°01' E 005°06'9 9.3
2017-Mar-19 08:34N 59°06' E 005°21'9 9.1
2017-Mar-19 07:33N 59°14' E 005°31'3 2.6
2017-Mar-19 06:32N 59°16' E 005°30'0 0.0
2017-Mar-19 05:32N 59°16' E 005°30'0 0.0
2017-Mar-19 04:32N 59°16' E 005°30'0 0.0
2017-Mar-19 03:32N 59°16' E 005°30'0 0.0
2017-Mar-19 02:29N 59°16' E 005°30'0 0.0
2017-Mar-19 01:32N 59°16' E 005°30'0 0.0
2017-Mar-19 00:32N 59°16' E 005°30'0 0.0
2017-Mar-18 23:32N 59°16' E 005°30'0 0.0
2017-Mar-18 22:32N 59°16' E 005°30'0 0.0
2017-Mar-18 21:32N 59°16' E 005°30'0 0.0
2017-Mar-18 20:32N 59°16' E 005°30'0 0.0
2017-Mar-18 19:32N 59°16' E 005°30'0 0.0
2017-Mar-18 18:32N 59°16' E 005°30'0 0.0
2017-Mar-18 17:32N 59°16' E 005°30'0 0.0
2017-Mar-18 16:32N 59°16' E 005°30'0 0.0
2017-Mar-18 15:32N 59°16' E 005°30'0 0.0
2017-Mar-18 14:32N 59°16' E 005°30'0 0.0
2017-Mar-18 13:32N 59°16' E 005°30'0 0.0
2017-Mar-18 12:32N 59°16' E 005°30'0 0.0
2017-Mar-18 11:32N 59°16' E 005°30'0 0.0
2017-Mar-18 10:32N 59°16' E 005°30'0 0.0
2017-Mar-18 09:32N 59°16' E 005°30'0 0.0
2017-Mar-18 08:32N 59°16' E 005°30'2 2.0
2017-Mar-18 07:33N 59°16' E 005°33'3 2.6
2017-Mar-18 06:32N 59°18' E 005°36'0 0.1
2017-Mar-18 05:32N 59°18' E 005°36'0 0.0
2017-Mar-18 04:32N 59°18' E 005°36'0 0.0
2017-Mar-18 03:32N 59°18' E 005°36'0 0.0
2017-Mar-18 02:32N 59°18' E 005°36'0 0.0
2017-Mar-18 01:32N 59°18' E 005°36'0 0.0
2017-Mar-18 00:32N 59°18' E 005°36'0 0.1
2017-Mar-17 23:32N 59°18' E 005°36'0 0.1
2017-Mar-17 22:32N 59°18' E 005°36'0 0.0
2017-Mar-17 21:32N 59°18' E 005°36'0 0.1
2017-Mar-17 20:32N 59°18' E 005°36'0 0.1
2017-Mar-17 19:32N 59°18' E 005°37'0 0.0
2017-Mar-17 18:32N 59°18' E 005°37'0 0.0
2017-Mar-17 17:32N 59°18' E 005°37'0 0.1
2017-Mar-17 16:32N 59°18' E 005°36'0 0.0
2017-Mar-17 15:32N 59°18' E 005°36'0 0.0
2017-Mar-17 14:32N 59°18' E 005°36'0 0.0
2017-Mar-17 13:32N 59°18' E 005°36'0 0.2
2017-Mar-17 12:32N 59°18' E 005°37'0 0.0
2017-Mar-17 11:32N 59°18' E 005°37'0 0.0
2017-Mar-17 10:32N 59°18' E 005°37'0 0.0
2017-Mar-17 09:32N 59°18' E 005°37'0 0.0
2017-Mar-17 08:32N 59°18' E 005°37'0 0.0
2017-Mar-17 07:32N 59°18' E 005°37'0 0.0
2017-Mar-17 06:32N 59°18' E 005°37'0 0.0
2017-Mar-17 05:32N 59°18' E 005°37'0 0.0
2017-Mar-17 04:32N 59°18' E 005°37'0 0.0
2017-Mar-17 03:32N 59°18' E 005°37'0 0.0
2017-Mar-17 02:32N 59°18' E 005°37'0 0.0
2017-Mar-17 01:32N 59°18' E 005°37'0 0.0
2017-Mar-17 00:32N 59°18' E 005°37'0 0.1
2017-Mar-16 23:32N 59°18' E 005°37'0 0.1
2017-Mar-16 22:32N 59°18' E 005°37'0 0.0
2017-Mar-16 21:29N 59°18' E 005°37'0 0.0
2017-Mar-16 20:29N 59°18' E 005°37'0 0.0
2017-Mar-16 19:32N 59°18' E 005°37'0 0.0
2017-Mar-16 18:29N 59°18' E 005°37'0 0.0
2017-Mar-16 17:32N 59°18' E 005°37'0 0.1
2017-Mar-16 16:32N 59°18' E 005°36'0 0.0
2017-Mar-16 15:32N 59°18' E 005°36'0 0.4
2017-Mar-16 14:33N 59°18' E 005°36'1110.6
2017-Mar-16 13:34N 59°08' E 005°29'1110.9
2017-Mar-16 12:34N 59°01' E 005°14'2 2.5
2017-Mar-16 11:34N 59°00' E 005°09'5 5.1
2017-Mar-16 10:34N 58°55' E 005°07'7 6.9
2017-Mar-16 09:34N 58°49' E 005°09'8 7.9
2017-Mar-16 08:34N 58°41' E 005°13'7 7.3
2017-Mar-16 07:33N 58°34' E 005°15'1111.5
2017-Mar-16 06:33N 58°23' E 005°21'1413.6
2017-Mar-16 05:33N 58°13' E 005°40'1313.2
2017-Mar-16 04:33N 58°05' E 005°59'1313.2
2017-Mar-16 03:33N 57°57' E 006°19'1413.1
2017-Mar-16 02:31N 57°48' E 006°38'1313.1
2017-Mar-16 01:33N 57°47' E 007°02'1312.7
2017-Mar-16 00:33N 57°47' E 007°26'1212.3
2017-Mar-15 23:33N 57°46' E 007°49'1212.3
2017-Mar-15 22:33N 57°50' E 008°11'6412.0
2017-Mar-15 17:11N 57°52' E 010°11'810.9
2017-Mar-15 16:29N 57°52' E 010°26'1010.4
2017-Mar-15 15:29N 57°49' E 010°45'9 9.2
2017-Mar-15 14:34N 57°41' E 010°41'3 2.8
2017-Mar-15 13:33N 57°41' E 010°36'0 0.0
2017-Mar-15 12:30N 57°41' E 010°36'0 0.0
2017-Mar-15 11:27N 57°41' E 010°36'0 0.0
2017-Mar-15 10:33N 57°41' E 010°36'0 0.0
2017-Mar-15 09:30N 57°41' E 010°36'0 0.1
2017-Mar-15 08:33N 57°41' E 010°36'6 6.3
2017-Mar-15 07:33N 57°45' E 010°45'5 5.3
2017-Mar-15 06:33N 57°48' E 010°38'10 9.7
2017-Mar-15 05:31N 57°48' E 010°19'  
Track history (hours):
 
Tides and Currents Weather Stations Pressure Air Temp Water Temp Dewpoint Dewpoint Depression Visibility Wind Speed Wind Dir Waves Ship Positions

Pazifik

Last reported at 2017-Mar-24 07:15 UTC. Time now 2017-Mar-25 21:38 UTC.
Position N 38°12' W 010°03'.

Length 205 m; draft 12.3 m.

Type: Ship (hazmat cat A). MMSI: 236111796.

Date/timePositionNaut miles runAvg speedWind from/ knotsBaromVisibWave heightAir tempDewpointWater temp
2017-Mar-24 07:15N 38°12' W 010°03'1013.3
2017-Mar-24 06:32N 38°21' W 010°06'1313.3
2017-Mar-24 05:32N 38°34' W 010°09'1313.7
2017-Mar-24 04:34N 38°47' W 010°11'1413.7
2017-Mar-24 03:33N 39°01' W 010°11'1413.5
2017-Mar-24 02:33N 39°15' W 010°11'  
2017-Mar-21 15:16N 49°47' W 003°25'1313.1
2017-Mar-21 14:15N 49°54' W 003°07'912.9
2017-Mar-21 13:33N 49°58' W 002°55'3912.8
2017-Mar-21 10:31N 50°11' W 001°58'1313.8
2017-Mar-21 09:34N 50°16' W 001°39'5914.7
2017-Mar-21 05:33N 50°29' W 000°09'1513.6
2017-Mar-21 04:30N 50°33' E 000°13'1313.0
2017-Mar-21 03:28N 50°35' E 000°34'1513.0
2017-Mar-21 02:19N 50°43' E 000°53'1113.1
2017-Mar-21 01:27N 50°50' E 001°08'1213.8
2017-Mar-21 00:33N 50°58' E 001°22'1514.7
2017-Mar-20 23:33N 51°09' E 001°38'1414.3
2017-Mar-20 22:33N 51°21' E 001°52'1313.5
2017-Mar-20 21:34N 51°32' E 002°03'5911.7
2017-Mar-20 16:33N 52°18' E 003°02'37613.4
2017-Mar-19 12:33N 58°28' E 005°00'1211.6
2017-Mar-19 11:34N 58°39' E 005°03'1211.8
2017-Mar-19 10:33N 58°51' E 005°05'10 9.8
2017-Mar-19 09:33N 59°01' E 005°06'9 9.3
2017-Mar-19 08:34N 59°06' E 005°21'9 9.1
2017-Mar-19 07:33N 59°14' E 005°31'3 2.6
2017-Mar-19 06:32N 59°16' E 005°30'0 0.0
2017-Mar-19 05:32N 59°16' E 005°30'0 0.0
2017-Mar-19 04:32N 59°16' E 005°30'0 0.0
2017-Mar-19 03:32N 59°16' E 005°30'0 0.0
2017-Mar-19 02:29N 59°16' E 005°30'0 0.0
2017-Mar-19 01:32N 59°16' E 005°30'0 0.0
2017-Mar-19 00:32N 59°16' E 005°30'0 0.0
2017-Mar-18 23:32N 59°16' E 005°30'0 0.0
2017-Mar-18 22:32N 59°16' E 005°30'0 0.0
2017-Mar-18 21:32N 59°16' E 005°30'0 0.0
2017-Mar-18 20:32N 59°16' E 005°30'0 0.0
2017-Mar-18 19:32N 59°16' E 005°30'0 0.0
2017-Mar-18 18:32N 59°16' E 005°30'0 0.0
2017-Mar-18 17:32N 59°16' E 005°30'0 0.0
2017-Mar-18 16:32N 59°16' E 005°30'0 0.0
2017-Mar-18 15:32N 59°16' E 005°30'0 0.0
2017-Mar-18 14:32N 59°16' E 005°30'0 0.0
2017-Mar-18 13:32N 59°16' E 005°30'0 0.0
2017-Mar-18 12:32N 59°16' E 005°30'0 0.0
2017-Mar-18 11:32N 59°16' E 005°30'0 0.0
2017-Mar-18 10:32N 59°16' E 005°30'0 0.0
2017-Mar-18 09:32N 59°16' E 005°30'0 0.0
2017-Mar-18 08:32N 59°16' E 005°30'2 2.0
2017-Mar-18 07:33N 59°16' E 005°33'3 2.6
2017-Mar-18 06:32N 59°18' E 005°36'0 0.1
2017-Mar-18 05:32N 59°18' E 005°36'0 0.0
2017-Mar-18 04:32N 59°18' E 005°36'0 0.0
2017-Mar-18 03:32N 59°18' E 005°36'0 0.0
2017-Mar-18 02:32N 59°18' E 005°36'0 0.0
2017-Mar-18 01:32N 59°18' E 005°36'0 0.0
2017-Mar-18 00:32N 59°18' E 005°36'0 0.1
2017-Mar-17 23:32N 59°18' E 005°36'0 0.1
2017-Mar-17 22:32N 59°18' E 005°36'0 0.0
2017-Mar-17 21:32N 59°18' E 005°36'0 0.1
2017-Mar-17 20:32N 59°18' E 005°36'0 0.1
2017-Mar-17 19:32N 59°18' E 005°37'0 0.0
2017-Mar-17 18:32N 59°18' E 005°37'0 0.0
2017-Mar-17 17:32N 59°18' E 005°37'0 0.1
2017-Mar-17 16:32N 59°18' E 005°36'0 0.0
2017-Mar-17 15:32N 59°18' E 005°36'0 0.0
2017-Mar-17 14:32N 59°18' E 005°36'0 0.0
2017-Mar-17 13:32N 59°18' E 005°36'0 0.2
2017-Mar-17 12:32N 59°18' E 005°37'0 0.0
2017-Mar-17 11:32N 59°18' E 005°37'0 0.0
2017-Mar-17 10:32N 59°18' E 005°37'0 0.0
2017-Mar-17 09:32N 59°18' E 005°37'0 0.0
2017-Mar-17 08:32N 59°18' E 005°37'0 0.0
2017-Mar-17 07:32N 59°18' E 005°37'0 0.0
2017-Mar-17 06:32N 59°18' E 005°37'0 0.0
2017-Mar-17 05:32N 59°18' E 005°37'0 0.0
2017-Mar-17 04:32N 59°18' E 005°37'0 0.0
2017-Mar-17 03:32N 59°18' E 005°37'0 0.0
2017-Mar-17 02:32N 59°18' E 005°37'0 0.0
2017-Mar-17 01:32N 59°18' E 005°37'0 0.0
2017-Mar-17 00:32N 59°18' E 005°37'0 0.1
2017-Mar-16 23:32N 59°18' E 005°37'0 0.1
2017-Mar-16 22:32N 59°18' E 005°37'0 0.0
2017-Mar-16 21:29N 59°18' E 005°37'0 0.0
2017-Mar-16 20:29N 59°18' E 005°37'0 0.0
2017-Mar-16 19:32N 59°18' E 005°37'0 0.0
2017-Mar-16 18:29N 59°18' E 005°37'0 0.0
2017-Mar-16 17:32N 59°18' E 005°37'0 0.1
2017-Mar-16 16:32N 59°18' E 005°36'0 0.0
2017-Mar-16 15:32N 59°18' E 005°36'0 0.4
2017-Mar-16 14:33N 59°18' E 005°36'1110.6
2017-Mar-16 13:34N 59°08' E 005°29'1110.9
2017-Mar-16 12:34N 59°01' E 005°14'2 2.5
2017-Mar-16 11:34N 59°00' E 005°09'5 5.1
2017-Mar-16 10:34N 58°55' E 005°07'7 6.9
2017-Mar-16 09:34N 58°49' E 005°09'8 7.9
2017-Mar-16 08:34N 58°41' E 005°13'7 7.3
2017-Mar-16 07:33N 58°34' E 005°15'1111.5
2017-Mar-16 06:33N 58°23' E 005°21'1413.6
2017-Mar-16 05:33N 58°13' E 005°40'1313.2
2017-Mar-16 04:33N 58°05' E 005°59'1313.2
2017-Mar-16 03:33N 57°57' E 006°19'1413.1
2017-Mar-16 02:31N 57°48' E 006°38'1313.1
2017-Mar-16 01:33N 57°47' E 007°02'1312.7
2017-Mar-16 00:33N 57°47' E 007°26'1212.3
2017-Mar-15 23:33N 57°46' E 007°49'1212.3
2017-Mar-15 22:33N 57°50' E 008°11'6412.0
2017-Mar-15 17:11N 57°52' E 010°11'810.9
2017-Mar-15 16:29N 57°52' E 010°26'1010.4
2017-Mar-15 15:29N 57°49' E 010°45'9 9.2
2017-Mar-15 14:34N 57°41' E 010°41'3 2.8
2017-Mar-15 13:33N 57°41' E 010°36'0 0.0
2017-Mar-15 12:30N 57°41' E 010°36'0 0.0
2017-Mar-15 11:27N 57°41' E 010°36'0 0.0
2017-Mar-15 10:33N 57°41' E 010°36'0 0.0
2017-Mar-15 09:30N 57°41' E 010°36'0 0.1
2017-Mar-15 08:33N 57°41' E 010°36'6 6.3
2017-Mar-15 07:33N 57°45' E 010°45'5 5.3
2017-Mar-15 06:33N 57°48' E 010°38'10 9.7
2017-Mar-15 05:31N 57°48' E 010°19'  

Dump ship's entire track history